Time;durP1;ratioP1;P1;durP2;ratioP2;P2;SDS_P1;SDS_P2;PMS_P1;PMS_P2;Temp;Humidity;BMP_temperature;BMP_pressure;BME280_temperature;BME280_humidity;BME280_pressure;Samples;Min_cycle;Max_cycle;Signal;HPM_P1;HPM_P2
2023/09/03 00:00:22;;;;;;;13.63;3.83;;;;;;;;;;5038364;28;20032;-67
2023/09/03 00:02:48;;;;;;;18.67;5.10;;;;;;;;;;5035363;28;20375;-67
2023/09/03 00:05:14;;;;;;;18.73;5.03;;;;;;;;;;5036322;28;20048;-67
2023/09/03 00:07:41;;;;;;;17.00;4.88;;;;;;;;;;5035168;28;20157;-68
2023/09/03 00:10:07;;;;;;;19.58;5.45;;;;;;;;;;5039604;28;20024;-67
2023/09/03 00:12:33;;;;;;;21.08;5.93;;;;;;;;;;5038121;28;20033;-68
2023/09/03 00:14:59;;;;;;;20.00;4.82;;;;;;;;;;5037314;28;20591;-68
2023/09/03 00:17:26;;;;;;;18.80;5.13;;;;;;;;;;5036291;28;20103;-68
2023/09/03 00:19:52;;;;;;;17.77;4.72;;;;;;;;;;5037907;28;20145;-67
2023/09/03 00:22:18;;;;;;;20.35;5.00;;;;;;;;;;5033861;28;20059;-67
2023/09/03 00:24:44;;;;;;;21.33;4.82;;;;;;;;;;5031527;28;20412;-67
2023/09/03 00:27:10;;;;;;;17.95;5.15;;;;;;;;;;5039565;28;20063;-67
2023/09/03 00:29:36;;;;;;;18.98;5.43;;;;;;;;;;5031140;28;20221;-67
2023/09/03 00:32:03;;;;;;;17.95;4.88;;;;;;;;;;5037524;28;20106;-68
2023/09/03 00:34:32;;;;;;;16.30;4.47;;;;;;;;;;5034524;28;20044;-67
2023/09/03 00:36:58;;;;;;;18.70;5.40;;;;;;;;;;5037009;28;20673;-67
2023/09/03 00:39:24;;;;;;;21.58;5.28;;;;;;;;;;5033748;28;20045;-67
2023/09/03 00:41:50;;;;;;;17.88;5.00;;;;;;;;;;5041151;28;20036;-67
2023/09/03 00:44:17;;;;;;;18.02;4.63;;;;;;;;;;5039654;28;20076;-67
2023/09/03 00:46:43;;;;;;;19.65;5.13;;;;;;;;;;5034967;28;20529;-67
2023/09/03 00:49:11;;;;;;;18.20;5.32;;;;;;;;;;5034674;28;20036;-67
2023/09/03 00:51:38;;;;;;;24.67;5.05;;;;;;;;;;5037722;28;20112;-67
2023/09/03 00:54:04;;;;;;;19.23;5.25;;;;;;;;;;5037008;28;20059;-67
2023/09/03 00:56:31;;;;;;;23.02;5.57;;;;;;;;;;5029359;28;20111;-67
2023/09/03 00:58:57;;;;;;;22.05;5.60;;;;;;;;;;5036916;28;20021;-67
2023/09/03 01:01:24;;;;;;;20.30;5.10;;;;;;;;;;5041886;28;20040;-67
2023/09/03 01:03:50;;;;;;;26.17;5.97;;;;;;;;;;5039967;28;20037;-67
2023/09/03 01:06:16;;;;;;;22.77;5.32;;;;;;;;;;5038854;28;20032;-67
2023/09/03 01:08:42;;;;;;;23.75;5.95;;;;;;;;;;5038844;28;20161;-67
2023/09/03 01:11:11;;;;;;;21.50;5.72;;;;;;;;;;5034390;28;20550;-67
2023/09/03 01:13:41;;;;;;;15.77;5.03;;;;;;;;;;5033692;28;20037;-68
2023/09/03 01:16:18;;;;;;;18.00;4.97;;;;;;;;;;5038915;28;20060;-68
2023/09/03 01:18:44;;;;;;;23.63;5.93;;;;;;;;;;5034747;28;20558;-68
2023/09/03 01:21:22;;;;;;;24.35;5.40;;;;;;;;;;5031967;28;20226;-67
2023/09/03 01:23:48;;;;;;;23.02;5.57;;;;;;;;;;5040343;28;20037;-68
2023/09/03 01:26:33;;;;;;;21.17;5.20;;;;;;;;;;5038505;28;20032;-68
2023/09/03 01:29:00;;;;;;;24.27;5.80;;;;;;;;;;5038267;28;20036;-68
2023/09/03 01:31:26;;;;;;;20.23;5.25;;;;;;;;;;5036664;28;20029;-68
2023/09/03 01:34:01;;;;;;;18.63;5.22;;;;;;;;;;5040287;28;20056;-68
2023/09/03 01:36:28;;;;;;;23.87;5.83;;;;;;;;;;5034060;28;20617;-68
2023/09/03 01:38:54;;;;;;;21.95;5.75;;;;;;;;;;5036314;28;20039;-68
2023/09/03 01:41:20;;;;;;;20.45;5.18;;;;;;;;;;5043351;28;20037;-67
2023/09/03 01:43:46;;;;;;;24.35;5.20;;;;;;;;;;5027348;28;20454;-68
2023/09/03 01:46:42;;;;;;;25.52;5.57;;;;;;;;;;5037596;28;20036;-67
2023/09/03 01:49:17;;;;;;;21.25;5.85;;;;;;;;;;5033990;28;20032;-67
2023/09/03 01:51:43;;;;;;;21.73;5.23;;;;;;;;;;5032596;28;20996;-67
2023/09/03 01:54:13;;;;;;;20.70;5.50;;;;;;;;;;5042996;28;20265;-68
2023/09/03 01:56:43;;;;;;;23.58;5.45;;;;;;;;;;5036446;28;20426;-67
2023/09/03 01:59:29;;;;;;;24.80;5.78;;;;;;;;;;5038166;28;20035;-67
2023/09/03 02:01:55;;;;;;;21.45;5.70;;;;;;;;;;5033403;28;20155;-67
2023/09/03 02:04:21;;;;;;;22.98;5.47;;;;;;;;;;5036113;28;20179;-67
2023/09/03 02:06:47;;;;;;;23.23;5.78;;;;;;;;;;5040955;28;20513;-69
2023/09/03 02:09:14;;;;;;;21.92;5.45;;;;;;;;;;5042101;28;20607;-67
2023/09/03 02:11:40;;;;;;;21.42;5.45;;;;;;;;;;5036824;28;20764;-67
2023/09/03 02:14:06;;;;;;;18.98;5.25;;;;;;;;;;5037362;28;20068;-68
2023/09/03 02:16:32;;;;;;;21.25;5.28;;;;;;;;;;5033730;28;20157;-67
2023/09/03 02:18:58;;;;;;;21.98;5.35;;;;;;;;;;5035173;28;20056;-67
2023/09/03 02:21:24;;;;;;;20.95;5.18;;;;;;;;;;5034253;28;20036;-67
2023/09/03 02:23:50;;;;;;;19.88;4.78;;;;;;;;;;5040033;28;20587;-67
2023/09/03 02:26:18;;;;;;;24.27;5.47;;;;;;;;;;5033437;28;20028;-67
2023/09/03 02:28:44;;;;;;;21.55;5.10;;;;;;;;;;5032950;28;20040;-67
2023/09/03 02:31:11;;;;;;;19.25;5.07;;;;;;;;;;5036965;28;20169;-67
2023/09/03 02:33:37;;;;;;;17.60;4.80;;;;;;;;;;5031603;28;20486;-67
2023/09/03 02:36:04;;;;;;;22.95;5.53;;;;;;;;;;5037655;28;20051;-67
2023/09/03 02:38:30;;;;;;;24.35;5.85;;;;;;;;;;5031000;28;20025;-67
2023/09/03 02:40:56;;;;;;;26.13;5.18;;;;;;;;;;5036427;28;20067;-67
2023/09/03 02:43:22;;;;;;;16.92;4.72;;;;;;;;;;5037669;28;20419;-67
2023/09/03 02:45:48;;;;;;;23.40;5.10;;;;;;;;;;5031075;28;20071;-67
2023/09/03 02:48:14;;;;;;;19.05;4.57;;;;;;;;;;5034818;28;20795;-67
2023/09/03 02:50:41;;;;;;;15.95;3.97;;;;;;;;;;5030883;28;20025;-67
2023/09/03 02:53:07;;;;;;;24.20;4.65;;;;;;;;;;5036757;28;20043;-67
2023/09/03 02:55:34;;;;;;;18.77;4.70;;;;;;;;;;5036687;28;20033;-67
2023/09/03 02:58:00;;;;;;;20.95;5.47;;;;;;;;;;5035857;28;20143;-67
2023/09/03 03:00:26;;;;;;;23.02;5.22;;;;;;;;;;5036480;28;20025;-67
2023/09/03 03:02:52;;;;;;;18.10;4.40;;;;;;;;;;5040278;28;20033;-69
2023/09/03 03:05:18;;;;;;;18.83;4.72;;;;;;;;;;5044871;28;20028;-67
2023/09/03 03:07:45;;;;;;;17.45;4.95;;;;;;;;;;5044291;28;20033;-67
2023/09/03 03:10:12;;;;;;;19.17;4.85;;;;;;;;;;5040972;28;20071;-67
2023/09/03 03:12:38;;;;;;;20.08;5.25;;;;;;;;;;5034493;28;20037;-67
2023/09/03 03:15:05;;;;;;;19.33;4.93;;;;;;;;;;5036043;28;20270;-67
2023/09/03 03:17:31;;;;;;;18.50;4.97;;;;;;;;;;5032904;28;20032;-67
2023/09/03 03:19:57;;;;;;;21.00;5.65;;;;;;;;;;5036707;28;20060;-67
2023/09/03 03:22:23;;;;;;;25.83;5.90;;;;;;;;;;5042038;28;20231;-67
2023/09/03 03:24:49;;;;;;;17.00;4.55;;;;;;;;;;5035756;28;20159;-67
2023/09/03 03:27:15;;;;;;;16.25;4.88;;;;;;;;;;5040688;28;20040;-67
2023/09/03 03:29:41;;;;;;;20.00;5.32;;;;;;;;;;5032579;28;20687;-67
2023/09/03 03:32:07;;;;;;;23.73;5.70;;;;;;;;;;5036023;28;20025;-67
2023/09/03 03:34:34;;;;;;;20.65;5.25;;;;;;;;;;5041372;28;20033;-67
2023/09/03 03:37:00;;;;;;;18.30;4.97;;;;;;;;;;5036836;28;20311;-67
2023/09/03 03:39:26;;;;;;;21.00;5.20;;;;;;;;;;5035460;28;20032;-67
2023/09/03 03:41:52;;;;;;;19.42;5.20;;;;;;;;;;5040642;28;20059;-67
2023/09/03 03:44:18;;;;;;;18.52;4.97;;;;;;;;;;5035057;28;20078;-67
2023/09/03 03:46:44;;;;;;;20.05;5.57;;;;;;;;;;5037682;28;20107;-67
2023/09/03 03:49:11;;;;;;;19.23;5.28;;;;;;;;;;5038147;28;20029;-67
2023/09/03 03:51:37;;;;;;;27.33;5.38;;;;;;;;;;5038313;28;20024;-67
2023/09/03 03:54:04;;;;;;;20.35;5.82;;;;;;;;;;5038655;28;20647;-67
2023/09/03 03:56:30;;;;;;;22.25;4.88;;;;;;;;;;5035929;28;20021;-68
2023/09/03 03:58:56;;;;;;;19.67;5.57;;;;;;;;;;5039288;28;21051;-67
2023/09/03 04:01:25;;;;;;;21.05;5.63;;;;;;;;;;5039430;28;20640;-67
2023/09/03 04:03:53;;;;;;;22.08;5.85;;;;;;;;;;5042546;28;20575;-67
2023/09/03 04:06:19;;;;;;;17.70;4.85;;;;;;;;;;5037403;28;20031;-68
2023/09/03 04:08:46;;;;;;;22.25;5.72;;;;;;;;;;5034905;28;20555;-67
2023/09/03 04:11:13;;;;;;;20.73;5.30;;;;;;;;;;5037655;28;20123;-68
2023/09/03 04:13:39;;;;;;;25.23;5.38;;;;;;;;;;5038829;28;20025;-68
2023/09/03 04:16:07;;;;;;;16.77;4.38;;;;;;;;;;5040197;28;20481;-68
2023/09/03 04:18:33;;;;;;;20.95;5.35;;;;;;;;;;5033347;28;20128;-67
2023/09/03 04:21:00;;;;;;;22.40;5.40;;;;;;;;;;5037825;28;20032;-67
2023/09/03 04:23:26;;;;;;;20.25;5.03;;;;;;;;;;5034685;28;20400;-68
2023/09/03 04:25:52;;;;;;;21.00;5.82;;;;;;;;;;5039136;28;20041;-68
2023/09/03 04:28:19;;;;;;;19.38;5.07;;;;;;;;;;5038859;28;20048;-68
2023/09/03 04:30:45;;;;;;;17.67;5.07;;;;;;;;;;5034369;28;20205;-68
2023/09/03 04:33:11;;;;;;;17.67;4.90;;;;;;;;;;5036509;28;20113;-67
2023/09/03 04:35:38;;;;;;;16.55;3.97;;;;;;;;;;5040481;28;20512;-67
2023/09/03 04:38:05;;;;;;;17.67;3.97;;;;;;;;;;5039168;28;20112;-67
2023/09/03 04:40:37;;;;;;;21.58;5.38;;;;;;;;;;5033796;28;20315;-68
2023/09/03 04:43:04;;;;;;;21.10;5.97;;;;;;;;;;5036656;28;20039;-67
2023/09/03 04:45:31;;;;;;;22.48;5.57;;;;;;;;;;5041508;28;20029;-67
2023/09/03 04:47:58;;;;;;;15.43;4.10;;;;;;;;;;5033232;28;20033;-68
2023/09/03 04:50:25;;;;;;;18.35;4.72;;;;;;;;;;5039323;28;20024;-67
2023/09/03 04:52:54;;;;;;;20.27;5.13;;;;;;;;;;5036378;28;20036;-67
2023/09/03 04:55:20;;;;;;;24.10;5.45;;;;;;;;;;5038930;28;20029;-67
2023/09/03 04:57:47;;;;;;;22.05;5.72;;;;;;;;;;5036524;28;20028;-67
2023/09/03 05:00:13;;;;;;;20.27;5.68;;;;;;;;;;5038849;28;20258;-67
2023/09/03 05:02:39;;;;;;;19.77;5.18;;;;;;;;;;5037154;28;20388;-67
2023/09/03 05:05:06;;;;;;;19.65;5.28;;;;;;;;;;5037594;28;20156;-67
2023/09/03 05:07:32;;;;;;;17.70;4.68;;;;;;;;;;5034005;28;20025;-67
2023/09/03 05:09:58;;;;;;;19.20;5.07;;;;;;;;;;5035275;28;20043;-68
2023/09/03 05:12:24;;;;;;;20.92;5.05;;;;;;;;;;5035759;28;20320;-67
2023/09/03 05:14:50;;;;;;;17.95;4.40;;;;;;;;;;5040730;28;20068;-68
2023/09/03 05:17:17;;;;;;;15.30;4.30;;;;;;;;;;5033818;28;20048;-67
2023/09/03 05:19:44;;;;;;;19.17;4.53;;;;;;;;;;5039616;28;20212;-67
2023/09/03 05:22:10;;;;;;;21.25;5.10;;;;;;;;;;5033634;28;20024;-67
2023/09/03 05:24:36;;;;;;;19.75;5.05;;;;;;;;;;5037358;28;20479;-67
2023/09/03 05:27:02;;;;;;;23.13;5.75;;;;;;;;;;5038792;28;20359;-68
2023/09/03 05:29:29;;;;;;;16.73;4.70;;;;;;;;;;5034314;28;20550;-68
2023/09/03 05:31:55;;;;;;;24.58;5.82;;;;;;;;;;5037758;28;20523;-68
2023/09/03 05:34:21;;;;;;;20.70;5.65;;;;;;;;;;5039259;28;20387;-68
2023/09/03 05:36:47;;;;;;;20.75;5.07;;;;;;;;;;5031852;28;20055;-67
2023/09/03 05:39:13;;;;;;;20.98;5.38;;;;;;;;;;5035173;28;20063;-68
2023/09/03 05:41:39;;;;;;;20.08;5.18;;;;;;;;;;5028997;28;20699;-67
2023/09/03 05:44:13;;;;;;;15.88;4.50;;;;;;;;;;5037520;28;20121;-67
2023/09/03 05:46:39;;;;;;;17.02;4.53;;;;;;;;;;5031078;28;20354;-67
2023/09/03 05:49:05;;;;;;;15.98;4.25;;;;;;;;;;5034813;28;20369;-68
2023/09/03 05:51:31;;;;;;;19.48;4.38;;;;;;;;;;5032244;28;20043;-68
2023/09/03 05:53:57;;;;;;;19.92;4.35;;;;;;;;;;5033990;28;20549;-67
2023/09/03 05:56:24;;;;;;;17.50;4.05;;;;;;;;;;5032454;28;20556;-68
2023/09/03 05:58:50;;;;;;;16.48;3.60;;;;;;;;;;5035997;28;20098;-68
2023/09/03 06:01:17;;;;;;;14.65;3.80;;;;;;;;;;5035187;28;20040;-68
2023/09/03 06:03:43;;;;;;;13.43;3.58;;;;;;;;;;5029326;28;20494;-68
2023/09/03 06:06:11;;;;;;;13.85;3.53;;;;;;;;;;5040562;28;20398;-67
2023/09/03 06:08:37;;;;;;;18.98;4.18;;;;;;;;;;5035642;28;20044;-68
2023/09/03 06:11:04;;;;;;;14.68;3.50;;;;;;;;;;5035612;28;20078;-68
2023/09/03 06:13:31;;;;;;;16.17;3.60;;;;;;;;;;5031900;28;20135;-67
2023/09/03 06:15:57;;;;;;;16.05;3.45;;;;;;;;;;5034599;28;20033;-68
2023/09/03 06:18:24;;;;;;;12.07;3.40;;;;;;;;;;5036143;28;20496;-68
2023/09/03 06:20:50;;;;;;;14.05;3.60;;;;;;;;;;5038422;28;20455;-68
2023/09/03 06:23:18;;;;;;;12.20;3.42;;;;;;;;;;5034517;28;20404;-68
2023/09/03 06:25:45;;;;;;;13.02;3.40;;;;;;;;;;5031888;28;20639;-67
2023/09/03 06:28:12;;;;;;;16.30;3.70;;;;;;;;;;5034036;28;20028;-67
2023/09/03 06:30:38;;;;;;;12.35;3.35;;;;;;;;;;5034454;28;20110;-67
2023/09/03 06:33:04;;;;;;;12.93;3.30;;;;;;;;;;5035172;28;20057;-67
2023/09/03 06:35:30;;;;;;;13.80;3.35;;;;;;;;;;5032766;28;20028;-67
2023/09/03 06:37:57;;;;;;;14.45;3.58;;;;;;;;;;5033183;28;20181;-67
2023/09/03 06:40:23;;;;;;;11.30;3.50;;;;;;;;;;5033118;28;20031;-67
2023/09/03 06:42:49;;;;;;;12.52;3.58;;;;;;;;;;5037694;28;20325;-66
2023/09/03 06:45:16;;;;;;;15.70;3.70;;;;;;;;;;5037364;28;20573;-67
2023/09/03 06:47:42;;;;;;;13.20;3.80;;;;;;;;;;5032735;28;20232;-67
2023/09/03 06:50:08;;;;;;;13.57;3.78;;;;;;;;;;5038223;28;20054;-68
2023/09/03 06:52:35;;;;;;;11.40;3.42;;;;;;;;;;5031313;28;20036;-68
2023/09/03 06:55:01;;;;;;;16.20;4.10;;;;;;;;;;5040548;28;20486;-68
2023/09/03 06:57:28;;;;;;;13.57;3.65;;;;;;;;;;5034132;28;20714;-68
2023/09/03 06:59:54;;;;;;;11.63;3.30;;;;;;;;;;5031845;28;20025;-67
2023/09/03 07:02:20;;;;;;;11.70;3.05;;;;;;;;;;5033343;28;20284;-67
2023/09/03 07:04:47;;;;;;;9.80;2.80;;;;;;;;;;5028435;28;20040;-69
2023/09/03 07:07:13;;;;;;;12.35;2.92;;;;;;;;;;5033587;28;20033;-67
2023/09/03 07:09:39;;;;;;;9.68;2.97;;;;;;;;;;5029225;28;20040;-67
2023/09/03 07:12:05;;;;;;;8.63;2.67;;;;;;;;;;5038264;28;20044;-67
2023/09/03 07:14:32;;;;;;;10.55;2.47;;;;;;;;;;5029044;28;20033;-67
2023/09/03 07:16:58;;;;;;;11.68;3.42;;;;;;;;;;5033258;28;20432;-69
2023/09/03 07:19:25;;;;;;;10.27;2.90;;;;;;;;;;5034758;28;20024;-67
2023/09/03 07:21:51;;;;;;;15.75;3.55;;;;;;;;;;5037620;28;20511;-67
2023/09/03 07:24:17;;;;;;;14.75;3.60;;;;;;;;;;5034191;28;20025;-68
2023/09/03 07:26:44;;;;;;;9.00;3.10;;;;;;;;;;5033300;28;22441;-67
2023/09/03 07:29:10;;;;;;;9.30;2.90;;;;;;;;;;5034161;28;20028;-67
2023/09/03 07:31:40;;;;;;;11.20;3.20;;;;;;;;;;5034633;28;20029;-67
2023/09/03 07:34:08;;;;;;;11.63;3.15;;;;;;;;;;5040832;28;20479;-67
2023/09/03 07:41:56;;;;;;;14.02;4.07;;;;;;;;;;5162026;23;20059;-69
2023/09/03 07:44:22;;;;;;;12.13;3.53;;;;;;;;;;4944328;28;20105;-69
2023/09/03 07:46:48;;;;;;;12.35;3.70;;;;;;;;;;4945729;28;20518;-69
2023/09/03 07:49:15;;;;;;;14.85;4.15;;;;;;;;;;4945221;28;20590;-68
2023/09/03 07:51:41;;;;;;;11.35;3.35;;;;;;;;;;4944716;28;20094;-67
2023/09/03 07:54:08;;;;;;;13.68;3.58;;;;;;;;;;4942729;28;20034;-67
2023/09/03 07:56:37;;;;;;;11.90;3.70;;;;;;;;;;4946932;28;20502;-67
2023/09/03 07:59:03;;;;;;;13.45;4.85;;;;;;;;;;4945853;28;20022;-67
2023/09/03 08:01:29;;;;;;;15.48;5.05;;;;;;;;;;4948586;28;20046;-68
2023/09/03 08:03:56;;;;;;;14.20;4.82;;;;;;;;;;4946747;28;20035;-67
2023/09/03 08:06:22;;;;;;;13.40;3.97;;;;;;;;;;4938656;28;20496;-67
2023/09/03 08:08:53;;;;;;;13.48;4.45;;;;;;;;;;4943827;28;20386;-67
2023/09/03 08:11:20;;;;;;;13.48;3.88;;;;;;;;;;4943813;28;21470;-67
2023/09/03 08:13:46;;;;;;;13.88;4.07;;;;;;;;;;4949480;28;20497;-67
2023/09/03 08:16:13;;;;;;;14.60;3.90;;;;;;;;;;4945354;28;20033;-67
2023/09/03 08:18:39;;;;;;;13.48;3.50;;;;;;;;;;4947936;28;20031;-67
2023/09/03 08:21:05;;;;;;;10.70;3.17;;;;;;;;;;4945928;28;20034;-67
2023/09/03 08:23:31;;;;;;;10.50;3.78;;;;;;;;;;4946519;28;20062;-67
2023/09/03 08:25:57;;;;;;;12.50;3.95;;;;;;;;;;4943777;28;20543;-67
2023/09/03 08:28:23;;;;;;;12.60;3.55;;;;;;;;;;4941501;28;20035;-67
2023/09/03 08:30:49;;;;;;;13.25;4.35;;;;;;;;;;4947976;28;20821;-67
2023/09/03 08:33:16;;;;;;;14.25;4.75;;;;;;;;;;4944315;28;20470;-66
2023/09/03 08:35:42;;;;;;;15.55;4.20;;;;;;;;;;4946981;28;20024;-67
2023/09/03 08:38:08;;;;;;;15.25;4.13;;;;;;;;;;4942259;28;20881;-68
2023/09/03 08:40:36;;;;;;;15.38;4.25;;;;;;;;;;4944478;28;20043;-68
2023/09/03 08:43:06;;;;;;;16.95;4.53;;;;;;;;;;4942483;28;20019;-68
2023/09/03 08:45:33;;;;;;;13.35;4.05;;;;;;;;;;4943783;28;20049;-68
2023/09/03 08:48:00;;;;;;;13.18;4.25;;;;;;;;;;4943264;28;20031;-67
2023/09/03 08:50:26;;;;;;;12.55;4.28;;;;;;;;;;4947633;28;20027;-67
2023/09/03 08:52:53;;;;;;;15.35;4.95;;;;;;;;;;4945196;28;20031;-67
2023/09/03 08:55:20;;;;;;;13.82;4.10;;;;;;;;;;4942296;28;20455;-67
2023/09/03 08:57:46;;;;;;;13.98;3.92;;;;;;;;;;4944422;28;20034;-69
2023/09/03 09:00:12;;;;;;;15.45;4.35;;;;;;;;;;4945921;28;20606;-69
2023/09/03 09:02:39;;;;;;;13.25;3.97;;;;;;;;;;4949102;28;20034;-66
2023/09/03 09:05:06;;;;;;;12.35;4.00;;;;;;;;;;4945807;28;20579;-69
2023/09/03 09:07:33;;;;;;;11.65;4.05;;;;;;;;;;4946398;28;20035;-67
2023/09/03 09:10:00;;;;;;;16.17;4.13;;;;;;;;;;4943162;28;20149;-69
2023/09/03 09:12:32;;;;;;;12.02;3.95;;;;;;;;;;4946777;28;20787;-67
2023/09/03 09:15:05;;;;;;;17.70;4.25;;;;;;;;;;4948789;28;20137;-67
2023/09/03 09:17:38;;;;;;;14.90;3.95;;;;;;;;;;4953031;28;20390;-67
2023/09/03 09:20:05;;;;;;;17.58;4.00;;;;;;;;;;4946949;28;20038;-67
2023/09/03 09:22:31;;;;;;;18.45;4.60;;;;;;;;;;4940902;28;20035;-67
2023/09/03 09:24:58;;;;;;;12.13;3.60;;;;;;;;;;4941081;28;20340;-67
2023/09/03 09:27:25;;;;;;;15.75;3.60;;;;;;;;;;4937620;28;20054;-67
2023/09/03 09:29:52;;;;;;;17.92;4.18;;;;;;;;;;4945101;28;20166;-67
2023/09/03 09:32:18;;;;;;;13.90;4.47;;;;;;;;;;4934103;28;20425;-67
2023/09/03 09:34:44;;;;;;;16.80;4.57;;;;;;;;;;4941353;28;20654;-68
2023/09/03 09:37:12;;;;;;;11.68;3.55;;;;;;;;;;4940929;28;20026;-67
2023/09/03 09:39:44;;;;;;;14.23;4.10;;;;;;;;;;4936485;28;20027;-68
2023/09/03 09:42:13;;;;;;;14.95;4.43;;;;;;;;;;4946179;28;20290;-68
2023/09/03 09:44:59;;;;;;;12.95;3.45;;;;;;;;;;4947984;28;20403;-68
2023/09/03 09:47:29;;;;;;;14.75;3.85;;;;;;;;;;4945654;28;20035;-68
2023/09/03 09:49:56;;;;;;;15.65;4.43;;;;;;;;;;4947268;28;20042;-68
2023/09/03 09:52:22;;;;;;;13.57;3.60;;;;;;;;;;4944419;28;20034;-69
2023/09/03 09:54:49;;;;;;;13.07;3.72;;;;;;;;;;4946031;28;20160;-69
2023/09/03 09:57:17;;;;;;;14.18;3.67;;;;;;;;;;4940661;28;20037;-68
2023/09/03 09:59:43;;;;;;;14.80;3.90;;;;;;;;;;4943016;28;20074;-69
2023/09/03 10:02:13;;;;;;;18.48;4.68;;;;;;;;;;4939281;28;20081;-69
2023/09/03 10:04:43;;;;;;;16.73;4.68;;;;;;;;;;4935701;28;20485;-69
2023/09/03 10:07:09;;;;;;;15.75;4.55;;;;;;;;;;4938674;28;20037;-69
2023/09/03 10:09:36;;;;;;;19.52;6.60;;;;;;;;;;4941399;28;20027;-69
2023/09/03 10:12:03;;;;;;;16.30;5.50;;;;;;;;;;4940299;28;20037;-68
2023/09/03 10:14:29;;;;;;;18.17;5.40;;;;;;;;;;4950243;28;20029;-69
2023/09/03 10:16:56;;;;;;;18.75;5.35;;;;;;;;;;4944587;28;20049;-68
2023/09/03 10:19:28;;;;;;;16.85;4.63;;;;;;;;;;4942980;28;20097;-68
2023/09/03 10:22:00;;;;;;;21.58;5.10;;;;;;;;;;4944606;28;20089;-69
2023/09/03 10:24:27;;;;;;;21.50;5.28;;;;;;;;;;4948460;28;20058;-68
2023/09/03 10:26:55;;;;;;;21.20;5.80;;;;;;;;;;4948774;28;20536;-68
2023/09/03 10:29:22;;;;;;;23.33;6.18;;;;;;;;;;4935132;28;20027;-67
2023/09/03 10:31:49;;;;;;;22.25;5.63;;;;;;;;;;4939086;28;20065;-68
2023/09/03 10:34:15;;;;;;;22.80;5.53;;;;;;;;;;4939994;28;20669;-68
2023/09/03 10:37:00;;;;;;;22.00;5.55;;;;;;;;;;4944436;28;20039;-67
2023/09/03 10:39:26;;;;;;;17.35;4.97;;;;;;;;;;4941467;28;20030;-70
2023/09/03 10:42:11;;;;;;;20.05;5.80;;;;;;;;;;4943815;28;20365;-67
2023/09/03 10:44:42;;;;;;;20.48;5.40;;;;;;;;;;4946325;28;20051;-68
2023/09/03 10:47:10;;;;;;;20.55;5.38;;;;;;;;;;4937332;28;20029;-67
2023/09/03 10:49:43;;;;;;;24.52;5.25;;;;;;;;;;4942886;28;20035;-67
2023/09/03 10:52:40;;;;;;;18.38;4.85;;;;;;;;;;4941266;28;20031;-67
2023/09/03 10:55:09;;;;;;;17.02;4.40;;;;;;;;;;4938899;28;20031;-68
2023/09/03 10:57:35;;;;;;;17.90;4.50;;;;;;;;;;4944317;28;20545;-67
2023/09/03 11:00:04;;;;;;;16.10;4.10;;;;;;;;;;4948311;28;20047;-68
2023/09/03 11:02:31;;;;;;;16.10;4.78;;;;;;;;;;4941714;28;20031;-69
2023/09/03 11:05:13;;;;;;;15.15;3.95;;;;;;;;;;4948497;28;20085;-68
2023/09/03 11:07:40;;;;;;;14.93;4.28;;;;;;;;;;4941579;28;20035;-69
2023/09/03 11:10:39;;;;;;;15.20;4.28;;;;;;;;;;4936255;28;20485;-68
2023/09/03 11:13:08;;;;;;;14.77;3.80;;;;;;;;;;4907010;28;20568;-68
2023/09/03 11:15:34;;;;;;;16.23;5.28;;;;;;;;;;4941822;28;20037;-69
2023/09/03 11:18:01;;;;;;;15.13;4.20;;;;;;;;;;4949465;28;20085;-69
2023/09/03 11:20:28;;;;;;;15.43;4.28;;;;;;;;;;4946784;28;20031;-68
2023/09/03 11:22:55;;;;;;;16.02;4.13;;;;;;;;;;4949612;28;20353;-69
2023/09/03 11:25:37;;;;;;;15.23;4.10;;;;;;;;;;4943753;28;20138;-69
2023/09/03 11:28:04;;;;;;;13.90;3.72;;;;;;;;;;4943560;28;20129;-68
2023/09/03 11:30:30;;;;;;;15.10;3.85;;;;;;;;;;4948078;28;20445;-68
2023/09/03 11:32:57;;;;;;;14.38;4.28;;;;;;;;;;4949601;28;20062;-71
2023/09/03 11:35:24;;;;;;;14.77;4.07;;;;;;;;;;4942768;28;20532;-68
2023/09/03 11:37:51;;;;;;;14.15;3.80;;;;;;;;;;4945696;28;20180;-69
2023/09/03 11:40:17;;;;;;;14.77;4.32;;;;;;;;;;4941525;28;20055;-70
2023/09/03 11:42:44;;;;;;;13.90;3.40;;;;;;;;;;4942484;28;20046;-68
2023/09/03 11:45:12;;;;;;;18.08;4.32;;;;;;;;;;4944007;28;20053;-69
2023/09/03 11:47:41;;;;;;;15.18;3.67;;;;;;;;;;4944649;28;20137;-68
2023/09/03 11:50:14;;;;;;;13.63;3.75;;;;;;;;;;4944133;28;20085;-68
2023/09/03 11:52:40;;;;;;;17.15;4.30;;;;;;;;;;4947447;28;20023;-68
2023/09/03 11:55:06;;;;;;;15.65;4.93;;;;;;;;;;4942564;28;20252;-68
2023/09/03 11:57:36;;;;;;;14.68;4.47;;;;;;;;;;4941096;28;20027;-67
2023/09/03 12:00:03;;;;;;;16.65;4.82;;;;;;;;;;4946731;28;20050;-68
2023/09/03 12:02:29;;;;;;;14.00;4.45;;;;;;;;;;4945734;28;20031;-68
2023/09/03 12:04:55;;;;;;;16.23;3.72;;;;;;;;;;4951119;28;20044;-68
2023/09/03 12:07:22;;;;;;;15.95;3.92;;;;;;;;;;4945491;28;20382;-67
2023/09/03 12:09:51;;;;;;;16.33;4.15;;;;;;;;;;4946808;28;20542;-67
2023/09/03 12:12:18;;;;;;;14.85;4.32;;;;;;;;;;4941072;28;20117;-68
2023/09/03 12:14:44;;;;;;;13.35;3.88;;;;;;;;;;4944806;28;20242;-68
2023/09/03 12:17:11;;;;;;;16.13;4.60;;;;;;;;;;4946446;28;20418;-68
2023/09/03 12:19:40;;;;;;;14.57;4.18;;;;;;;;;;4943657;28;20113;-69
2023/09/03 12:22:06;;;;;;;14.25;4.60;;;;;;;;;;4945847;28;20351;-67
2023/09/03 12:24:33;;;;;;;17.52;5.05;;;;;;;;;;4945270;28;20038;-69
2023/09/03 12:27:03;;;;;;;17.02;5.20;;;;;;;;;;4945810;28;20773;-69
2023/09/03 12:29:34;;;;;;;20.50;4.78;;;;;;;;;;4943215;28;20033;-69
2023/09/03 12:32:00;;;;;;;15.02;4.20;;;;;;;;;;4945283;28;20126;-69
2023/09/03 12:34:39;;;;;;;13.77;4.10;;;;;;;;;;4945666;28;20062;-69
2023/09/03 12:37:06;;;;;;;12.25;4.10;;;;;;;;;;4942433;28;20563;-68
2023/09/03 12:39:32;;;;;;;15.65;4.90;;;;;;;;;;4945775;28;20031;-69
2023/09/03 12:42:01;;;;;;;15.13;4.43;;;;;;;;;;4947785;28;20081;-68
2023/09/03 12:44:28;;;;;;;15.20;4.40;;;;;;;;;;4941354;28;20031;-68
2023/09/03 12:46:54;;;;;;;16.02;4.53;;;;;;;;;;4945652;28;20565;-69
2023/09/03 12:49:21;;;;;;;18.25;4.30;;;;;;;;;;4945865;28;20127;-68
2023/09/03 12:51:47;;;;;;;15.68;4.05;;;;;;;;;;4951510;28;20130;-69
2023/09/03 12:54:14;;;;;;;14.68;4.40;;;;;;;;;;4943629;28;20090;-69
2023/09/03 12:56:40;;;;;;;14.23;4.25;;;;;;;;;;4947214;28;20508;-68
2023/09/03 12:59:06;;;;;;;14.70;3.85;;;;;;;;;;4943289;28;20027;-68
2023/09/03 13:01:33;;;;;;;12.75;4.20;;;;;;;;;;4951648;28;20038;-69
2023/09/03 13:04:00;;;;;;;14.13;3.90;;;;;;;;;;4950325;28;20026;-69
2023/09/03 13:06:26;;;;;;;15.13;4.30;;;;;;;;;;4945389;28;20058;-69
2023/09/03 13:08:53;;;;;;;14.55;4.43;;;;;;;;;;4951450;28;20487;-69
2023/09/03 13:11:19;;;;;;;15.27;4.53;;;;;;;;;;4941634;28;20023;-68
2023/09/03 13:13:49;;;;;;;18.77;5.18;;;;;;;;;;4943080;28;20027;-68
2023/09/03 13:16:16;;;;;;;15.63;4.63;;;;;;;;;;4944147;28;20022;-68
2023/09/03 13:18:44;;;;;;;14.98;4.57;;;;;;;;;;4949646;28;20090;-68
2023/09/03 13:21:10;;;;;;;13.80;4.47;;;;;;;;;;4946056;28;20042;-68
2023/09/03 13:23:36;;;;;;;13.27;3.50;;;;;;;;;;4947684;28;20069;-69
2023/09/03 13:26:03;;;;;;;14.63;3.55;;;;;;;;;;4947770;28;20035;-69
2023/09/03 13:28:29;;;;;;;13.90;3.80;;;;;;;;;;4944151;28;20350;-69
2023/09/03 13:30:55;;;;;;;16.50;3.80;;;;;;;;;;4944891;28;20103;-68
2023/09/03 13:33:21;;;;;;;14.05;4.38;;;;;;;;;;4941340;28;20022;-68
2023/09/03 13:35:54;;;;;;;11.20;3.65;;;;;;;;;;4939387;28;20043;-69
2023/09/03 13:38:21;;;;;;;17.23;4.07;;;;;;;;;;4939182;28;20034;-69
2023/09/03 13:40:48;;;;;;;15.77;3.80;;;;;;;;;;4943605;28;20134;-69
2023/09/03 13:43:14;;;;;;;14.55;4.00;;;;;;;;;;4939083;28;20283;-69
2023/09/03 13:45:41;;;;;;;13.10;3.75;;;;;;;;;;4943077;28;20549;-69
2023/09/03 13:48:07;;;;;;;12.80;3.72;;;;;;;;;;4943024;28;20034;-69
2023/09/03 13:50:33;;;;;;;15.93;3.92;;;;;;;;;;4946060;28;20038;-69
2023/09/03 13:53:00;;;;;;;12.05;3.20;;;;;;;;;;4946543;28;20026;-69
2023/09/03 13:55:32;;;;;;;14.40;4.40;;;;;;;;;;4944573;28;20454;-69
2023/09/03 13:57:59;;;;;;;13.77;4.05;;;;;;;;;;4945586;28;20122;-71
2023/09/03 14:00:25;;;;;;;15.80;3.92;;;;;;;;;;4944318;28;20172;-69
2023/09/03 14:02:51;;;;;;;14.02;4.00;;;;;;;;;;4948140;28;20363;-69
2023/09/03 14:05:19;;;;;;;17.17;4.22;;;;;;;;;;4942476;28;20425;-69
2023/09/03 14:07:45;;;;;;;19.27;4.28;;;;;;;;;;4945229;28;20023;-71
2023/09/03 14:10:11;;;;;;;14.93;4.43;;;;;;;;;;4945227;28;20304;-69
2023/09/03 14:12:38;;;;;;;15.80;4.30;;;;;;;;;;4947006;28;20536;-68
2023/09/03 14:15:04;;;;;;;12.90;3.92;;;;;;;;;;4941100;28;20477;-67
2023/09/03 14:17:30;;;;;;;15.05;4.53;;;;;;;;;;4948068;28;20097;-68
2023/09/03 14:19:56;;;;;;;17.20;4.50;;;;;;;;;;4947091;28;20075;-68
2023/09/03 14:22:22;;;;;;;16.17;4.45;;;;;;;;;;4940849;28;20034;-68
2023/09/03 14:24:49;;;;;;;17.98;3.97;;;;;;;;;;4944162;28;20554;-68
2023/09/03 14:27:15;;;;;;;13.50;4.15;;;;;;;;;;4942439;28;20130;-68
2023/09/03 14:29:41;;;;;;;17.30;4.18;;;;;;;;;;4949247;28;20040;-68
2023/09/03 14:32:07;;;;;;;14.02;4.32;;;;;;;;;;4941873;28;20524;-68
2023/09/03 14:34:34;;;;;;;17.45;4.38;;;;;;;;;;4951312;28;20591;-68
2023/09/03 14:37:00;;;;;;;14.75;4.50;;;;;;;;;;4945449;28;20410;-67